Time;durP1;ratioP1;P1;durP2;ratioP2;P2;SDS_P1;SDS_P2;PMS_P1;PMS_P2;Temp;Humidity;BMP_temperature;BMP_pressure;BME280_temperature;BME280_humidity;BME280_pressure;Samples;Min_cycle;Max_cycle;Signal;HPM_P1;HPM_P2
2021/12/15 00:01:48;;;;;;;15.60;8.80;;;;;;;1.36;79.63;93877.84;5079616;28;20020;-39
2021/12/15 00:04:14;;;;;;;13.60;9.10;;;;;;;1.35;80.51;93877.09;5079255;28;20035;-39
2021/12/15 00:06:40;;;;;;;15.27;10.07;;;;;;;1.37;79.55;93874.66;5080591;28;20413;-39
2021/12/15 00:09:11;;;;;;;21.80;14.82;;;;;;;1.45;79.96;93873.00;5079302;28;20024;-39
2021/12/15 00:11:37;;;;;;;11.27;7.82;;;;;;;1.47;79.13;93869.81;5079359;28;20028;-38
2021/12/15 00:14:07;;;;;;;13.57;8.88;;;;;;;1.46;79.30;93871.78;5077559;28;20067;-38
2021/12/15 00:16:33;;;;;;;15.52;9.82;;;;;;;1.41;79.75;93875.19;5079963;28;20400;-39
2021/12/15 00:18:58;;;;;;;19.10;12.50;;;;;;;1.42;79.85;93870.50;5080680;28;20031;-39
2021/12/15 00:21:24;;;;;;;21.98;12.27;;;;;;;1.50;80.28;93872.31;5079750;28;20067;-39
2021/12/15 00:23:50;;;;;;;12.32;7.60;;;;;;;1.52;79.77;93874.53;5079732;28;20078;-39
2021/12/15 00:26:17;;;;;;;16.08;9.82;;;;;;;1.46;80.76;93873.75;5079345;28;20479;-39
2021/12/15 00:28:43;;;;;;;12.77;8.48;;;;;;;1.53;80.11;93882.25;5082012;28;20027;-39
2021/12/15 00:31:10;;;;;;;22.80;15.25;;;;;;;1.52;79.66;93871.81;5078317;28;20032;-39
2021/12/15 00:33:36;;;;;;;15.63;10.25;;;;;;;1.45;79.86;93886.59;5078816;28;20093;-39
2021/12/15 00:36:03;;;;;;;10.27;7.43;;;;;;;1.49;79.58;93884.41;5080608;28;20020;-39
2021/12/15 00:38:29;;;;;;;15.00;8.52;;;;;;;1.49;79.45;93876.25;5082512;28;20042;-39
2021/12/15 00:40:54;;;;;;;14.48;9.13;;;;;;;1.51;79.83;93884.69;5078553;28;20490;-39
2021/12/15 00:43:21;;;;;;;16.67;8.95;;;;;;;1.49;79.33;93878.97;5080339;28;20028;-39
2021/12/15 00:45:46;;;;;;;13.68;8.80;;;;;;;1.46;79.38;93871.78;5078265;28;20121;-39
2021/12/15 00:48:13;;;;;;;10.90;6.90;;;;;;;1.48;79.24;93880.19;5080131;28;20028;-39
2021/12/15 00:50:40;;;;;;;11.40;7.82;;;;;;;1.55;78.96;93876.31;5082191;28;20035;-39
2021/12/15 00:53:06;;;;;;;12.30;7.80;;;;;;;1.50;78.67;93879.72;5078866;28;20405;-40
2021/12/15 00:55:32;;;;;;;14.50;10.02;;;;;;;1.54;78.61;93872.84;5080485;28;20027;-39
2021/12/15 00:57:59;;;;;;;37.80;22.90;;;;;;;1.60;78.70;93877.59;5081529;28;20412;-39
2021/12/15 01:00:32;;;;;;;20.77;12.98;;;;;;;1.63;78.59;93882.81;5081278;28;20024;-39
2021/12/15 01:02:58;;;;;;;19.42;8.00;;;;;;;1.67;78.13;93882.63;5080562;28;20024;-39
2021/12/15 01:05:27;;;;;;;14.68;9.13;;;;;;;1.57;78.11;93882.00;5079593;28;20050;-39
2021/12/15 01:07:53;;;;;;;13.20;9.30;;;;;;;1.53;78.82;93879.53;5080241;28;20424;-38
2021/12/15 01:10:26;;;;;;;15.15;9.15;;;;;;;1.63;78.64;93882.06;5080383;28;20489;-38
2021/12/15 01:21:06;;;;;;;21.40;11.73;;;;;;;1.45;79.23;93873.00;5079270;28;19935;-39
2021/12/15 01:23:32;;;;;;;19.58;11.30;;;;;;;1.39;79.79;93868.72;5077476;28;20032;-39
2021/12/15 01:26:02;;;;;;;22.75;13.77;;;;;;;1.19;79.50;93845.03;5079562;28;20503;-39
2021/12/15 01:28:29;;;;;;;47.63;25.98;;;;;;;1.40;79.73;93868.25;5081729;28;20020;-39
2021/12/15 01:30:55;;;;;;;50.47;26.88;;;;;;;1.37;79.99;93873.88;5079372;28;20086;-39
2021/12/15 01:33:23;;;;;;;23.27;13.68;;;;;;;1.46;79.69;93877.22;5080013;28;20540;-39
2021/12/15 01:35:50;;;;;;;16.25;11.15;;;;;;;1.52;79.34;93869.84;5077901;28;20031;-39
2021/12/15 01:38:17;;;;;;;19.10;13.98;;;;;;;1.49;79.59;93865.34;5079801;28;20062;-39
2021/12/15 01:40:44;;;;;;;13.13;8.25;;;;;;;1.51;79.64;93864.91;5078289;28;20551;-40
2021/12/15 01:43:17;;;;;;;13.32;9.02;;;;;;;1.48;79.56;93861.16;5078334;28;20023;-41
2021/12/15 01:48:31;;;;;;;19.15;9.27;;;;;;;1.48;79.46;93863.13;5077518;28;20038;-38
2021/12/15 01:50:57;;;;;;;13.50;8.85;;;;;;;1.40;80.16;93865.53;5079340;28;20032;-38
2021/12/15 01:53:23;;;;;;;13.63;9.00;;;;;;;1.30;79.86;93869.63;5082180;28;20043;-38
2021/12/15 01:55:49;;;;;;;12.60;8.57;;;;;;;1.37;80.68;93863.00;5078668;28;20035;-38
2021/12/15 01:58:15;;;;;;;13.55;8.18;;;;;;;1.52;80.29;93863.66;5078583;28;20518;-38
2021/12/15 02:00:47;;;;;;;11.00;7.55;;;;;;;1.65;79.93;93861.31;5079114;28;20029;-38
2021/12/15 02:03:13;;;;;;;13.85;8.38;;;;;;;1.51;79.23;93845.84;5079699;28;20025;-38
2021/12/15 02:05:38;;;;;;;12.07;8.05;;;;;;;1.72;78.02;93865.56;5078416;28;20127;-38
2021/12/15 02:08:05;;;;;;;12.77;8.43;;;;;;;1.51;78.62;93873.06;5075170;28;20024;-38
2021/12/15 02:10:34;;;;;;;16.13;9.30;;;;;;;1.52;79.46;93869.84;5079427;28;20056;-38
2021/12/15 02:13:01;;;;;;;;;;;;;;;1.53;79.86;93867.88;5077852;28;20031;-38
2021/12/15 02:15:36;;;;;;;15.13;9.80;;;;;;;1.57;80.00;93867.66;5075821;28;19923;-38
2021/12/15 02:18:03;;;;;;;15.27;8.85;;;;;;;1.63;79.52;93869.19;5082826;28;20165;-38
2021/12/15 02:20:36;;;;;;;15.25;9.15;;;;;;;1.62;79.11;93869.69;5084580;28;20028;-38
2021/12/15 02:23:04;;;;;;;17.20;9.82;;;;;;;1.60;79.98;93869.44;5082978;28;20028;-39
2021/12/15 02:25:29;;;;;;;15.07;10.25;;;;;;;1.75;79.18;93865.38;5085868;28;20421;-40
2021/12/15 02:27:55;;;;;;;13.95;9.38;;;;;;;1.68;79.82;93863.06;5082583;28;20020;-40
2021/12/15 02:30:48;;;;;;;18.38;11.13;;;;;;;1.69;79.29;93858.38;5082935;28;20114;-39
2021/12/15 02:38:40;;;;;;;15.65;8.80;;;;;;;1.53;79.57;93865.91;5084048;28;20420;-38
2021/12/15 02:41:11;;;;;;;14.43;10.13;;;;;;;1.56;80.52;93875.06;5081355;28;20040;-38
2021/12/15 02:43:38;;;;;;;15.35;9.35;;;;;;;1.61;80.03;93868.19;5083730;28;20024;-38
2021/12/15 02:46:06;;;;;;;19.92;10.27;;;;;;;1.57;80.36;93870.38;5081309;28;20598;-38
2021/12/15 02:48:31;;;;;;;23.63;14.15;;;;;;;1.66;79.69;93876.41;5084047;28;20031;-38
2021/12/15 02:50:57;;;;;;;17.58;10.25;;;;;;;1.50;80.05;93866.09;5080377;28;20114;-38
2021/12/15 02:53:23;;;;;;;15.55;10.27;;;;;;;1.23;81.05;93851.03;5082134;28;20432;-38
2021/12/15 02:55:49;;;;;;;16.25;10.38;;;;;;;1.39;81.26;93885.78;5082014;28;20020;-38
2021/12/15 02:58:17;;;;;;;17.65;10.48;;;;;;;1.33;81.39;93889.69;5084257;28;20413;-38
2021/12/15 03:00:54;;;;;;;16.95;10.63;;;;;;;1.36;81.79;93886.00;5082931;28;20028;-39
2021/12/15 03:06:11;;;;;;;19.02;11.40;;;;;;;1.40;81.28;93875.66;5080091;28;20042;-38
2021/12/15 03:09:09;;;;;;;13.80;8.25;;;;;;;1.42;80.65;93875.94;5081483;28;20089;-38
2021/12/15 03:17:17;;;;;;;18.00;10.48;;;;;;;1.20;82.41;93887.31;5065151;28;20040;-37
2021/12/15 03:19:42;;;;;;;16.58;10.85;;;;;;;1.11;82.94;93892.91;5079568;28;20059;-38
2021/12/15 03:22:08;;;;;;;17.23;11.00;;;;;;;1.12;82.79;93886.25;5082527;28;20035;-38
2021/12/15 03:24:33;;;;;;;18.45;10.88;;;;;;;1.13;83.13;93893.16;5082157;28;20032;-38
2021/12/15 03:27:07;;;;;;;20.17;11.73;;;;;;;1.12;83.69;93891.69;5078121;28;20028;-38
2021/12/15 03:37:41;;;;;;;13.10;8.45;;;;;;;1.19;82.58;93904.13;5082875;28;20029;-38
2021/12/15 03:40:27;;;;;;;12.40;8.85;;;;;;;1.18;82.94;93905.34;5081165;28;20040;-38
2021/12/15 03:43:14;;;;;;;13.65;8.63;;;;;;;1.24;81.97;93906.13;5081515;28;20145;-38
2021/12/15 03:45:50;;;;;;;14.18;8.80;;;;;;;1.26;81.90;93904.44;5080836;28;20099;-37
2021/12/15 03:48:20;;;;;;;12.07;7.88;;;;;;;1.16;81.49;93908.53;5082625;28;20060;-37
2021/12/15 03:50:48;;;;;;;;;;;;;;;1.16;81.80;93911.25;5082356;28;20056;-38
2021/12/15 03:53:14;;;;;;;15.93;9.98;;;;;;;1.17;81.88;93910.03;5078960;28;20283;-37
2021/12/15 03:55:41;;;;;;;13.70;8.60;;;;;;;1.12;81.52;93905.28;5079876;28;20400;-37
2021/12/15 03:58:11;;;;;;;17.40;10.40;;;;;;;1.13;82.21;93909.47;5078376;28;20111;-37
2021/12/15 04:00:40;;;;;;;18.00;10.32;;;;;;;1.15;82.98;93900.88;5077723;28;20031;-38
2021/12/15 04:03:08;;;;;;;12.75;8.90;;;;;;;1.28;82.49;93910.16;5079544;28;20425;-37
2021/12/15 04:05:33;;;;;;;15.27;9.68;;;;;;;1.10;82.08;93877.81;5079659;28;20040;-38
2021/12/15 04:08:00;;;;;;;13.90;9.23;;;;;;;1.35;81.27;93912.47;5082037;28;20489;-38
2021/12/15 04:10:26;;;;;;;15.88;9.65;;;;;;;1.44;81.70;93904.16;5079669;28;20047;-38
2021/12/15 04:12:52;;;;;;;15.60;9.50;;;;;;;1.40;81.24;93897.44;5081055;28;20020;-38
2021/12/15 04:17:50;;;;;;;23.95;15.65;;;;;;;1.46;81.81;93901.69;5081009;28;20032;-38
2021/12/15 04:20:18;;;;;;;26.92;16.98;;;;;;;1.45;81.94;93900.19;5081259;28;20488;-38
2021/12/15 04:22:44;;;;;;;40.53;23.48;;;;;;;1.48;81.74;93896.53;5081319;28;20089;-38
2021/12/15 04:25:20;;;;;;;29.42;17.50;;;;;;;1.44;81.21;93906.88;5079651;28;20028;-38
2021/12/15 04:28:15;;;;;;;54.90;29.75;;;;;;;1.53;81.19;93900.53;5081227;28;20117;-38
2021/12/15 04:30:53;;;;;;;58.55;30.45;;;;;;;1.43;80.71;93908.09;5081350;28;20036;-37
2021/12/15 04:33:29;;;;;;;33.22;20.85;;;;;;;1.49;80.56;93911.59;5078418;28;21402;-39
2021/12/15 04:35:55;;;;;;;31.85;18.88;;;;;;;1.44;80.53;93909.59;5081044;28;20056;-38
2021/12/15 04:38:24;;;;;;;32.22;18.73;;;;;;;1.51;80.58;93905.72;5080308;28;20035;-39
2021/12/15 04:40:50;;;;;;;25.85;14.15;;;;;;;1.46;80.92;93907.13;5081265;28;20630;-37
2021/12/15 04:43:16;;;;;;;25.92;14.50;;;;;;;1.50;80.27;93913.13;5076968;28;20040;-37
2021/12/15 04:45:41;;;;;;;34.35;16.77;;;;;;;1.52;80.12;93916.09;5077703;28;20056;-37
2021/12/15 04:48:08;;;;;;;30.02;17.90;;;;;;;1.48;80.21;93918.28;5076635;28;20595;-37
2021/12/15 04:50:34;;;;;;;27.90;15.05;;;;;;;1.45;80.73;93913.06;5078536;28;20168;-37
2021/12/15 04:53:02;;;;;;;23.48;13.60;;;;;;;1.41;80.53;93915.97;5077821;28;20610;-37
2021/12/15 04:55:30;;;;;;;31.80;18.00;;;;;;;1.45;80.23;93921.97;5077923;28;20682;-37
2021/12/15 04:57:57;;;;;;;34.97;15.75;;;;;;;1.38;80.16;93927.09;5080613;28;20028;-37
2021/12/15 05:00:26;;;;;;;37.25;16.50;;;;;;;1.38;80.25;93924.38;5078102;28;20571;-37
2021/12/15 05:02:52;;;;;;;29.92;18.02;;;;;;;1.25;80.02;93918.53;5078744;28;20107;-37
2021/12/15 05:05:20;;;;;;;27.83;16.08;;;;;;;1.32;80.29;93939.88;5080410;28;20033;-37
2021/12/15 05:07:45;;;;;;;33.40;18.90;;;;;;;1.32;80.42;93937.16;5080829;28;20298;-37
2021/12/15 05:10:12;;;;;;;28.50;16.98;;;;;;;1.35;80.95;93950.53;5079682;28;20405;-37
2021/12/15 05:12:38;;;;;;;32.88;15.48;;;;;;;1.39;80.58;93945.63;5080491;28;20810;-37
2021/12/15 05:15:05;;;;;;;24.25;14.93;;;;;;;1.35;80.58;93950.53;5078916;28;20665;-37
2021/12/15 05:17:31;;;;;;;54.83;31.80;;;;;;;1.38;80.43;93946.88;5079076;28;20115;-37
2021/12/15 05:20:00;;;;;;;39.33;21.83;;;;;;;1.37;80.22;93945.38;5076858;28;20120;-37
2021/12/15 05:22:26;;;;;;;44.03;23.30;;;;;;;1.29;79.96;93944.28;5077120;28;20032;-37
2021/12/15 05:24:52;;;;;;;30.92;17.65;;;;;;;1.38;79.79;93943.41;5077603;28;20086;-37
2021/12/15 05:27:18;;;;;;;21.35;12.95;;;;;;;1.35;80.33;93947.81;5079503;28;20028;-37
2021/12/15 05:29:46;;;;;;;26.70;13.98;;;;;;;1.32;79.86;93948.75;5080186;28;20063;-37
2021/12/15 05:32:13;;;;;;;27.05;14.52;;;;;;;1.39;79.25;93942.91;5076649;28;20028;-38
2021/12/15 05:34:40;;;;;;;27.25;15.20;;;;;;;1.26;79.35;93947.97;5077810;28;20032;-38
2021/12/15 05:37:06;;;;;;;24.33;14.82;;;;;;;1.40;79.72;93946.41;5077398;28;20025;-38
2021/12/15 05:39:33;;;;;;;25.02;14.45;;;;;;;1.37;79.58;93948.09;5076816;28;20081;-38
2021/12/15 05:41:58;;;;;;;20.40;14.10;;;;;;;1.38;79.22;93946.88;5076319;28;20028;-38
2021/12/15 05:44:24;;;;;;;25.73;16.25;;;;;;;1.39;79.93;93959.25;5076841;28;20081;-38
2021/12/15 05:46:52;;;;;;;24.17;12.68;;;;;;;1.44;79.59;93958.56;5077414;28;20098;-38
2021/12/15 05:49:18;;;;;;;24.98;13.85;;;;;;;1.35;79.52;93953.25;5079550;28;20089;-38
2021/12/15 05:51:45;;;;;;;30.75;17.60;;;;;;;1.51;79.66;93960.13;5078254;28;20035;-38
2021/12/15 05:54:11;;;;;;;31.05;16.30;;;;;;;1.61;79.56;93966.16;5077283;28;20055;-38
2021/12/15 05:56:36;;;;;;;34.75;19.58;;;;;;;1.58;78.23;93965.16;5081468;28;20032;-38
2021/12/15 05:59:03;;;;;;;30.65;15.48;;;;;;;1.53;78.18;93969.31;5078001;28;20032;-38
2021/12/15 06:01:29;;;;;;;27.10;15.63;;;;;;;1.46;78.33;93958.84;5077813;28;20521;-39
2021/12/15 06:03:56;;;;;;;25.42;13.50;;;;;;;1.48;79.14;93961.81;5080263;28;20108;-38
2021/12/15 06:06:22;;;;;;;26.45;16.45;;;;;;;1.53;79.27;93965.84;5080530;28;20051;-39
2021/12/15 06:08:48;;;;;;;24.33;16.00;;;;;;;1.58;79.06;93967.13;5077352;28;20028;-37
2021/12/15 06:11:14;;;;;;;26.83;14.88;;;;;;;1.52;79.61;93967.03;5077346;28;20037;-37
2021/12/15 06:13:40;;;;;;;28.52;15.70;;;;;;;1.60;78.86;93968.16;5075695;28;20039;-39
2021/12/15 06:16:06;;;;;;;24.83;14.95;;;;;;;1.53;78.98;93950.25;5079036;28;20080;-38
2021/12/15 06:18:32;;;;;;;27.88;15.07;;;;;;;1.61;78.93;93980.50;5074640;28;20036;-39
2021/12/15 06:20:58;;;;;;;32.17;15.02;;;;;;;1.71;78.09;93979.13;5077591;28;20144;-41
2021/12/15 06:23:23;;;;;;;21.77;12.95;;;;;;;1.70;78.40;93976.91;5081170;28;20032;-41
2021/12/15 06:25:58;;;;;;;32.83;18.50;;;;;;;1.60;78.67;93979.03;5077618;28;20583;-41
2021/12/15 06:28:25;;;;;;;41.90;22.65;;;;;;;1.29;78.83;93974.22;5076257;28;20412;-41
2021/12/15 06:30:51;;;;;;;40.00;22.35;;;;;;;1.33;79.03;93972.03;5075455;28;20032;-41
2021/12/15 06:33:17;;;;;;;30.63;17.88;;;;;;;1.25;79.01;93979.13;5074447;28;20147;-40
2021/12/15 06:35:52;;;;;;;31.25;18.27;;;;;;;1.13;79.17;93977.47;5075013;28;20085;-41
2021/12/15 06:38:22;;;;;;;32.35;16.95;;;;;;;0.97;79.17;93988.13;5074407;28;20044;-40
2021/12/15 06:40:47;;;;;;;35.50;17.60;;;;;;;1.13;78.59;93987.59;5075469;28;20028;-40
2021/12/15 06:43:13;;;;;;;35.65;19.42;;;;;;;1.25;78.96;93986.53;5069539;28;20040;-41
2021/12/15 06:45:52;;;;;;;26.20;15.98;;;;;;;1.11;77.92;93984.59;5073621;28;20087;-40
2021/12/15 06:59:14;;;;;;;25.63;15.27;;;;;;;1.35;77.69;93999.50;5073560;28;20086;-41
2021/12/15 07:01:40;;;;;;;32.03;16.25;;;;;;;1.56;78.26;94000.25;5072380;28;20032;-41
2021/12/15 07:04:06;;;;;;;32.47;19.65;;;;;;;1.52;77.92;94005.91;5072976;28;20403;-40
2021/12/15 07:06:31;;;;;;;28.75;17.80;;;;;;;1.41;77.57;94011.19;5074343;28;20060;-40
2021/12/15 07:08:57;;;;;;;30.67;19.05;;;;;;;1.44;78.67;94010.25;5079179;28;20487;-40
2021/12/15 07:11:23;;;;;;;29.50;16.90;;;;;;;1.47;77.25;94009.28;5078731;28;20033;-40
2021/12/15 07:13:48;;;;;;;28.58;16.63;;;;;;;1.41;77.60;94005.75;5079734;28;20032;-41
2021/12/15 07:16:14;;;;;;;27.67;16.65;;;;;;;1.44;77.71;94012.97;5079903;28;20024;-41
2021/12/15 07:21:20;;;;;;;39.22;22.00;;;;;;;1.41;77.00;94016.63;5078048;28;20039;-40
2021/12/15 07:23:47;;;;;;;39.90;23.77;;;;;;;1.22;76.54;94015.41;5077003;28;20420;-40
2021/12/15 07:26:13;;;;;;;37.80;21.73;;;;;;;1.25;78.04;94028.06;5075555;28;20157;-40
2021/12/15 07:28:38;;;;;;;33.58;20.08;;;;;;;1.33;77.28;94034.59;5080103;28;20081;-40
2021/12/15 07:31:04;;;;;;;32.72;18.08;;;;;;;1.25;77.26;94033.50;5077721;28;20028;-39
2021/12/15 07:33:30;;;;;;;34.33;19.40;;;;;;;1.06;77.52;94007.75;5076047;28;20081;-39
2021/12/15 07:35:56;;;;;;;28.83;18.35;;;;;;;1.50;78.21;94046.44;5073993;28;20690;-39
2021/12/15 07:38:22;;;;;;;26.92;15.48;;;;;;;1.42;77.24;94042.63;5077595;28;20114;-39
2021/12/15 07:40:48;;;;;;;28.10;16.80;;;;;;;1.43;77.71;94046.84;5075931;28;20107;-40
2021/12/15 07:43:23;;;;;;;26.45;15.75;;;;;;;1.54;77.26;94041.53;5075831;28;20028;-40
2021/12/15 07:45:55;;;;;;;31.92;19.42;;;;;;;1.49;76.67;94044.94;5078238;28;20497;-41
2021/12/15 07:48:22;;;;;;;32.40;20.02;;;;;;;1.44;76.47;94050.31;5076363;28;20138;-41
2021/12/15 07:50:50;;;;;;;37.10;20.77;;;;;;;1.60;76.06;94044.34;5074840;28;20028;-41
2021/12/15 07:53:18;;;;;;;33.03;19.10;;;;;;;1.43;76.10;94049.56;5074814;28;20307;-42
2021/12/15 07:55:44;;;;;;;33.60;18.90;;;;;;;1.22;76.58;94052.72;5075529;28;20028;-41
2021/12/15 07:58:10;;;;;;;34.17;18.95;;;;;;;1.29;77.29;94052.34;5076573;28;20378;-41
2021/12/15 08:00:37;;;;;;;33.05;18.98;;;;;;;1.08;77.60;94051.56;5076068;28;20056;-41
2021/12/15 08:03:03;;;;;;;26.27;16.15;;;;;;;1.09;77.54;94055.03;5076464;28;20047;-41
2021/12/15 08:05:29;;;;;;;30.13;18.42;;;;;;;0.96;76.93;94060.78;5078311;28;20103;-41
2021/12/15 08:07:54;;;;;;;32.10;16.20;;;;;;;0.80;77.22;94055.09;5075987;28;20432;-41
2021/12/15 08:10:20;;;;;;;24.67;15.93;;;;;;;0.72;77.44;94062.88;5076195;28;20028;-41
2021/12/15 08:12:47;;;;;;;27.80;16.23;;;;;;;0.64;77.78;94061.75;5076507;28;20118;-41
2021/12/15 08:15:13;;;;;;;30.88;18.23;;;;;;;0.51;77.37;94064.00;5077655;28;20020;-41
2021/12/15 08:17:41;;;;;;;27.63;16.50;;;;;;;0.44;78.16;94070.56;5075235;28;20033;-40
2021/12/15 08:20:09;;;;;;;25.55;15.18;;;;;;;0.27;78.55;94063.34;5074383;28;20033;-40
2021/12/15 08:22:34;;;;;;;29.55;15.25;;;;;;;0.34;78.32;94065.69;5076427;28;20765;-40
2021/12/15 08:25:00;;;;;;;23.13;15.10;;;;;;;-0.01;78.49;94060.13;5075020;28;20085;-40
2021/12/15 08:27:26;;;;;;;30.33;15.60;;;;;;;0.03;79.77;94070.81;5072883;28;20398;-39
2021/12/15 08:29:51;;;;;;;23.77;14.73;;;;;;;0.09;80.59;94074.41;5072586;28;20078;-39
2021/12/15 08:32:17;;;;;;;40.33;20.55;;;;;;;0.08;80.37;94072.88;5075380;28;20103;-40
2021/12/15 08:34:43;;;;;;;28.63;17.67;;;;;;;0.07;79.35;94074.09;5070764;28;20332;-40
2021/12/15 08:37:13;;;;;;;28.42;16.65;;;;;;;-0.03;79.67;94060.63;5075785;28;20055;-40
2021/12/15 08:39:43;;;;;;;29.95;18.10;;;;;;;0.25;78.97;94071.97;5075879;28;20028;-40
2021/12/15 08:42:10;;;;;;;26.90;15.85;;;;;;;0.07;80.09;94044.22;5077366;28;20036;-39
2021/12/15 08:44:35;;;;;;;23.88;15.65;;;;;;;0.14;79.22;94077.19;5077464;28;20069;-39
2021/12/15 08:47:02;;;;;;;27.42;15.35;;;;;;;-0.02;79.70;94080.34;5078476;28;20019;-40
2021/12/15 08:49:27;;;;;;;27.17;17.10;;;;;;;0.02;79.44;94070.06;5078272;28;20024;-40
2021/12/15 08:51:53;;;;;;;26.27;15.82;;;;;;;0.19;80.11;94070.38;5077103;28;20043;-40
2021/12/15 08:54:20;;;;;;;25.27;16.05;;;;;;;0.32;79.07;94070.84;5077079;28;20124;-41
2021/12/15 08:56:47;;;;;;;26.63;16.55;;;;;;;0.44;79.30;94065.13;5078301;28;20071;-41
2021/12/15 08:59:13;;;;;;;29.45;18.23;;;;;;;0.45;79.21;94076.75;5078149;28;20488;-40
2021/12/15 09:01:39;;;;;;;28.95;17.38;;;;;;;0.26;79.13;94081.59;5078254;28;20043;-40
2021/12/15 09:04:05;;;;;;;29.63;17.80;;;;;;;0.24;80.17;94073.19;5077105;28;20481;-40
2021/12/15 09:06:33;;;;;;;29.20;17.80;;;;;;;0.48;79.62;94084.72;5077760;28;20064;-40
2021/12/15 09:08:58;;;;;;;26.25;16.20;;;;;;;0.47;78.91;94077.78;5080259;28;20088;-40
2021/12/15 09:11:26;;;;;;;32.92;18.92;;;;;;;0.42;77.95;94083.13;5078607;28;20510;-39
2021/12/15 09:13:54;;;;;;;30.67;19.25;;;;;;;0.48;78.91;94081.25;5077698;28;20040;-40
2021/12/15 09:16:20;;;;;;;31.58;18.60;;;;;;;0.70;79.21;94081.63;5078704;28;20108;-39
2021/12/15 09:18:47;;;;;;;27.65;18.65;;;;;;;0.83;78.66;94081.31;5076523;28;20442;-41
2021/12/15 09:21:15;;;;;;;36.65;19.73;;;;;;;0.82;78.09;94086.03;5076180;28;20062;-41
2021/12/15 09:23:43;;;;;;;37.75;21.50;;;;;;;0.78;78.19;94085.44;5077013;28;20038;-40
2021/12/15 09:26:09;;;;;;;30.08;17.50;;;;;;;0.59;78.27;94084.16;5075668;28;20024;-40
2021/12/15 09:28:35;;;;;;;29.95;18.95;;;;;;;0.76;78.37;94077.00;5076072;28;20085;-41
2021/12/15 09:31:03;;;;;;;26.80;16.42;;;;;;;0.77;78.38;94079.28;5073014;28;20455;-39
2021/12/15 09:33:31;;;;;;;44.85;26.98;;;;;;;0.84;77.30;94078.16;5074855;28;20535;-39
2021/12/15 09:35:57;;;;;;;31.98;20.40;;;;;;;0.90;77.56;94078.22;5074422;28;20035;-40
2021/12/15 09:38:23;;;;;;;35.58;19.90;;;;;;;0.87;77.19;94079.91;5070978;28;20028;-41
2021/12/15 09:40:53;;;;;;;32.63;18.08;;;;;;;0.88;77.49;94077.94;5074988;28;20024;-40
2021/12/15 09:43:19;;;;;;;26.42;17.08;;;;;;;0.83;76.97;94073.91;5074931;28;20044;-41
2021/12/15 09:46:02;;;;;;;24.23;15.20;;;;;;;0.83;77.17;94075.88;5072858;28;20036;-40
2021/12/15 09:57:01;;;;;;;27.40;17.92;;;;;;;0.57;78.02;94056.69;5073627;28;20158;-39
2021/12/15 10:04:58;;;;;;;33.47;19.70;;;;;;;0.76;78.20;94079.72;5072668;28;20094;-40
2021/12/15 10:20:49;;;;;;;29.10;16.10;;;;;;;0.70;78.63;94078.91;5074420;28;21128;-41
2021/12/15 10:23:22;;;;;;;31.20;18.15;;;;;;;0.74;78.64;94079.44;5075244;28;20099;-40
2021/12/15 10:25:49;;;;;;;36.95;20.42;;;;;;;0.50;78.06;94025.22;5074792;28;20445;-40
2021/12/15 10:28:21;;;;;;;35.03;18.88;;;;;;;0.85;78.72;94076.91;5071623;28;20070;-40
2021/12/15 10:30:50;;;;;;;30.65;17.60;;;;;;;0.75;79.24;94080.97;5073017;28;20032;-40
2021/12/15 10:33:24;;;;;;;30.58;17.95;;;;;;;0.81;78.65;94083.75;5073968;28;20060;-39
2021/12/15 10:35:56;;;;;;;29.77;16.85;;;;;;;0.83;78.92;94084.03;5073289;28;20119;-40
2021/12/15 10:38:28;;;;;;;28.63;18.52;;;;;;;0.59;79.26;94079.47;5077669;28;20468;-39
2021/12/15 10:41:10;;;;;;;29.05;16.02;;;;;;;0.66;79.13;94072.91;5079120;28;20032;-39
2021/12/15 10:43:39;;;;;;;34.13;17.45;;;;;;;0.64;79.47;94076.09;5077041;28;20056;-40
2021/12/15 10:46:18;;;;;;;34.13;17.45;;;;;;;0.62;80.06;94075.81;5074756;28;20144;-39
2021/12/15 10:48:54;;;;;;;31.48;17.95;;;;;;;0.60;79.99;94070.09;5075826;28;20130;-39
2021/12/15 10:51:34;;;;;;;33.47;21.50;;;;;;;0.70;80.18;94068.03;5076404;28;20066;-39
2021/12/15 10:54:14;;;;;;;39.80;23.40;;;;;;;0.93;80.16;94063.69;5077269;28;20060;-41
2021/12/15 10:57:03;;;;;;;32.47;19.33;;;;;;;0.98;79.00;94065.72;5077163;28;20031;-40
2021/12/15 10:59:35;;;;;;;41.75;19.33;;;;;;;1.11;78.60;94060.72;5067071;28;20512;-39
2021/12/15 11:02:05;;;;;;;35.55;19.98;;;;;;;1.28;78.66;94051.59;5074391;28;20039;-40
2021/12/15 11:04:36;;;;;;;37.20;20.65;;;;;;;1.34;77.84;94059.84;5077695;28;20063;-39
2021/12/15 11:07:04;;;;;;;25.77;16.02;;;;;;;1.47;77.84;94062.97;5078714;28;20040;-40
2021/12/15 11:09:38;;;;;;;28.02;17.60;;;;;;;1.47;77.39;94055.53;5077731;28;20101;-41
2021/12/15 11:12:13;;;;;;;30.15;16.90;;;;;;;1.55;76.59;94053.19;5072733;28;20049;-40
2021/12/15 11:14:41;;;;;;;23.75;15.70;;;;;;;1.57;76.34;94053.44;5078508;28;20534;-40
2021/12/15 11:17:11;;;;;;;24.90;15.13;;;;;;;1.58;76.36;94046.81;5080524;28;20097;-41
2021/12/15 11:19:42;;;;;;;25.40;16.20;;;;;;;1.67;75.91;94052.09;5076695;28;20032;-41
2021/12/15 11:22:29;;;;;;;24.77;15.57;;;;;;;1.77;75.92;94053.47;5075896;28;20032;-40
2021/12/15 11:24:55;;;;;;;21.42;14.52;;;;;;;1.74;74.77;94053.66;5074594;28;20894;-41
2021/12/15 11:27:22;;;;;;;29.90;18.35;;;;;;;1.72;75.36;94056.84;5073452;28;20107;-41
2021/12/15 11:29:47;;;;;;;22.85;13.88;;;;;;;1.88;75.41;94061.00;5076220;28;20032;-40
2021/12/15 11:32:51;;;;;;;21.50;14.70;;;;;;;1.71;75.78;94060.06;5077532;28;20028;-40
2021/12/15 11:35:21;;;;;;;25.02;15.07;;;;;;;1.78;76.34;94057.66;5076965;28;20047;-39
2021/12/15 11:37:51;;;;;;;25.63;14.93;;;;;;;1.71;75.61;94054.63;5076162;28;20032;-40
2021/12/15 11:40:29;;;;;;;26.55;14.55;;;;;;;1.83;76.31;94048.06;5076188;28;20517;-40
2021/12/15 11:42:54;;;;;;;27.73;15.50;;;;;;;1.84;75.39;94035.97;5074950;28;20036;-40
2021/12/15 11:45:20;;;;;;;45.10;24.83;;;;;;;1.99;75.57;94053.69;5076256;28;20047;-40
2021/12/15 11:47:46;;;;;;;145.05;65.00;;;;;;;2.09;75.32;94046.88;5074773;28;20064;-40
2021/12/15 11:50:18;;;;;;;43.33;23.42;;;;;;;2.10;74.75;94047.63;5076898;28;20047;-40
2021/12/15 11:52:48;;;;;;;22.67;14.15;;;;;;;2.10;74.65;94047.63;5076627;28;20641;-40
2021/12/15 11:55:22;;;;;;;24.90;15.18;;;;;;;2.05;75.29;94049.06;5074954;28;20044;-40
2021/12/15 11:57:48;;;;;;;24.88;13.77;;;;;;;1.88;75.38;94061.00;5078794;28;20078;-40
2021/12/15 12:00:16;;;;;;;20.75;13.82;;;;;;;1.92;75.44;94050.66;5077819;28;20521;-40
2021/12/15 12:02:43;;;;;;;26.13;15.93;;;;;;;2.03;74.96;94058.94;5076157;28;20044;-40
2021/12/15 12:05:14;;;;;;;22.83;15.68;;;;;;;2.04;75.42;94053.00;5075891;28;20037;-41
2021/12/15 12:07:47;;;;;;;24.60;16.02;;;;;;;2.03;75.00;94053.50;5075362;28;20563;-40
2021/12/15 12:10:44;;;;;;;26.77;18.17;;;;;;;2.07;75.00;94054.78;5079475;28;20032;-42
2021/12/15 12:13:15;;;;;;;31.38;19.13;;;;;;;2.14;75.50;94050.91;5075287;28;20048;-41
2021/12/15 12:15:43;;;;;;;25.83;17.05;;;;;;;2.03;75.62;94048.06;5077997;28;20044;-40
2021/12/15 12:18:12;;;;;;;29.35;20.58;;;;;;;1.96;75.14;94049.22;5077615;28;20063;-41
2021/12/15 12:20:45;;;;;;;26.85;16.73;;;;;;;1.91;75.60;94040.97;5074438;28;20497;-40
2021/12/15 12:23:14;;;;;;;31.88;17.83;;;;;;;1.97;75.38;94034.38;5078284;28;20044;-40
2021/12/15 12:25:43;;;;;;;26.30;15.43;;;;;;;2.06;75.77;94045.09;5075747;28;20032;-41
2021/12/15 12:28:10;;;;;;;;;;;;;;;2.15;74.64;94039.50;5079458;28;20070;-41
2021/12/15 12:30:59;;;;;;;26.00;15.45;;;;;;;2.14;74.87;94043.44;5075804;28;20026;-40
2021/12/15 12:33:25;;;;;;;;;;;;;;;1.89;74.81;94037.97;5076047;28;20040;-40
2021/12/15 12:36:04;;;;;;;25.95;15.75;;;;;;;1.71;75.46;94021.97;5078439;28;19962;-40
2021/12/15 12:38:32;;;;;;;25.75;16.67;;;;;;;1.95;75.23;94036.81;5077327;28;20071;-41
2021/12/15 12:41:02;;;;;;;31.42;18.98;;;;;;;1.90;74.98;94032.06;5077797;28;20103;-41
2021/12/15 12:43:39;;;;;;;27.65;17.58;;;;;;;1.69;75.67;94036.03;5074687;28;20040;-41
2021/12/15 12:46:23;;;;;;;26.25;16.92;;;;;;;1.81;75.76;94039.63;5071257;28;20028;-41
2021/12/15 12:59:23;;;;;;;28.52;16.42;;;;;;;1.36;77.30;94058.16;5074457;28;20044;-41
2021/12/15 13:01:10;;;;;;;28.70;17.67;;;;;;;1.41;77.63;94046.56;5073245;28;20152;-40